createdAt,value
2023-01-29T00:00:37.112Z,45.9
2023-01-29T00:01:50.541Z,45.9
2023-01-29T00:02:53.493Z,45.9
2023-01-29T00:04:07.496Z,45.9
2023-01-29T00:08:51.375Z,45.9
2023-01-29T00:09:54.193Z,45.9
2023-01-29T00:10:21.002Z,46.0
2023-01-29T00:11:08.006Z,45.9
2023-01-29T00:12:20.823Z,45.9
2023-01-29T00:13:24.505Z,45.9
2023-01-29T00:14:37.332Z,45.9
2023-01-29T00:15:51.022Z,45.9
2023-01-29T00:16:53.905Z,45.9
2023-01-29T00:18:07.523Z,45.9
2023-01-29T00:19:20.370Z,45.9
2023-01-29T00:20:33.993Z,46.0
2023-01-29T00:21:36.880Z,45.9
2023-01-29T00:22:51.005Z,46.0
2023-01-29T00:24:03.922Z,46.0
2023-01-29T00:25:07.545Z,46.0
2023-01-29T00:26:20.410Z,46.0
2023-01-29T00:27:34.020Z,45.9
2023-01-29T00:28:56.838Z,46.0
2023-01-29T00:29:50.501Z,46.0
2023-01-29T00:31:03.382Z,46.0
2023-01-29T00:32:07.067Z,46.0
2023-01-29T00:33:20.029Z,46.0
2023-01-29T00:34:33.549Z,46.0
2023-01-29T00:35:36.445Z,46.0
2023-01-29T00:36:50.035Z,46.0
2023-01-29T00:38:02.875Z,46.0
2023-01-29T00:39:16.520Z,45.9
2023-01-29T00:40:19.572Z,46.0
2023-01-29T00:41:33.547Z,45.9
2023-01-29T00:42:36.399Z,46.0
2023-01-29T00:43:50.087Z,46.0
2023-01-29T00:45:03.073Z,46.0
2023-01-29T00:46:16.565Z,46.0
2023-01-29T00:47:19.573Z,46.0
2023-01-29T00:48:33.491Z,46.0
2023-01-29T00:49:46.363Z,46.0
2023-01-29T00:50:50.028Z,46.0
2023-01-29T00:52:02.887Z,46.0
2023-01-29T00:53:16.522Z,46.0
2023-01-29T00:54:19.458Z,46.0
2023-01-29T00:55:32.995Z,46.0
2023-01-29T00:56:45.865Z,46.1
2023-01-29T00:57:49.531Z,46.0
2023-01-29T00:59:02.412Z,46.0
2023-01-29T01:00:16.909Z,46.0
2023-01-29T01:01:19.999Z,46.0
2023-01-29T01:02:33.525Z,46.0
2023-01-29T01:03:46.390Z,46.0
2023-01-29T01:04:50.225Z,46.1
2023-01-29T01:06:03.059Z,46.0
2023-01-29T01:07:20.091Z,46.0
2023-01-29T01:08:43.133Z,46.1
2023-01-29T01:09:37.013Z,46.0
2023-01-29T01:10:39.925Z,46.1
2023-01-29T01:11:53.528Z,46.0
2023-01-29T01:13:06.393Z,46.0
2023-01-29T01:14:20.016Z,46.0
2023-01-29T01:15:23.079Z,46.0
2023-01-29T01:16:36.590Z,46.0
2023-01-29T01:17:49.527Z,46.0
2023-01-29T01:18:53.042Z,45.9
2023-01-29T01:20:05.951Z,46.0
2023-01-29T01:21:19.613Z,46.0
2023-01-29T01:22:22.546Z,46.0
2023-01-29T01:23:36.017Z,46.0
2023-01-29T01:24:48.874Z,46.0
2023-01-29T01:25:52.524Z,46.0
2023-01-29T01:27:05.403Z,45.9
2023-01-29T01:28:22.660Z,46.0
2023-01-29T01:29:25.742Z,46.0
2023-01-29T01:30:39.550Z,46.0
2023-01-29T01:31:42.542Z,46.0
2023-01-29T01:32:56.564Z,45.9
2023-01-29T01:34:09.470Z,45.9
2023-01-29T01:35:13.034Z,46.0
2023-01-29T01:36:25.900Z,45.9
2023-01-29T01:37:39.536Z,45.9
2023-01-29T01:38:52.616Z,45.9
2023-01-29T01:39:56.522Z,45.9
2023-01-29T01:41:09.375Z,45.9
2023-01-29T01:42:23.062Z,45.9
2023-01-29T01:43:25.956Z,45.9
2023-01-29T01:44:49.530Z,45.9
2023-01-29T01:45:52.502Z,45.9
2023-01-29T01:46:56.552Z,45.9
2023-01-29T01:48:09.428Z,45.9
2023-01-29T01:49:23.053Z,45.9
2023-01-29T01:50:25.978Z,45.9
2023-01-29T01:51:39.542Z,45.9
2023-01-29T01:52:52.423Z,45.9
2023-01-29T01:53:56.037Z,45.8
2023-01-29T01:55:08.921Z,45.9
2023-01-29T01:56:22.522Z,45.9
2023-01-29T01:57:25.601Z,45.8
2023-01-29T01:58:39.540Z,45.9
2023-01-29T01:59:52.450Z,45.8
2023-01-29T02:00:56.077Z,45.9
2023-01-29T02:02:09.094Z,45.8
2023-01-29T02:03:23.062Z,45.8
2023-01-29T02:04:25.957Z,45.8
2023-01-29T02:05:40.074Z,45.8
2023-01-29T02:06:52.963Z,45.8
2023-01-29T02:07:56.595Z,45.8
2023-01-29T02:09:09.436Z,45.8
2023-01-29T02:10:23.018Z,45.8
2023-01-29T02:11:25.990Z,45.9
2023-01-29T02:12:49.535Z,45.8
2023-01-29T02:13:52.475Z,45.9
2023-01-29T02:15:06.034Z,45.8
2023-01-29T02:16:08.927Z,45.8
2023-01-29T02:17:22.624Z,45.8
2023-01-29T02:18:35.621Z,45.8
2023-01-29T02:19:39.540Z,45.7
2023-01-29T02:20:52.402Z,45.8
2023-01-29T02:22:06.042Z,45.8
2023-01-29T02:23:08.936Z,45.7
2023-01-29T02:24:22.685Z,45.8
2023-01-29T02:25:35.644Z,45.7
2023-01-29T02:26:49.044Z,45.7
2023-01-29T02:27:51.956Z,45.8
2023-01-29T02:29:05.647Z,45.7
2023-01-29T02:30:08.560Z,45.7
2023-01-29T02:31:22.194Z,45.7
2023-01-29T02:32:35.172Z,45.7
2023-01-29T02:33:49.038Z,45.7
2023-01-29T02:34:51.977Z,45.7
2023-01-29T02:36:05.559Z,45.7
2023-01-29T02:37:18.421Z,45.7
2023-01-29T02:38:42.056Z,45.7
2023-01-29T02:39:35.012Z,45.7
2023-01-29T02:40:48.555Z,45.7
2023-01-29T02:41:51.458Z,45.7
2023-01-29T02:43:05.563Z,45.6
2023-01-29T02:44:18.469Z,45.6
2023-01-29T02:45:22.048Z,45.6
2023-01-29T02:46:34.922Z,45.6
2023-01-29T02:47:48.541Z,45.6
2023-01-29T02:48:51.458Z,45.6
2023-01-29T02:50:05.054Z,45.6
2023-01-29T02:51:17.909Z,45.6
2023-01-29T02:52:21.531Z,45.6
2023-01-29T02:53:34.380Z,45.6
2023-01-29T02:54:48.042Z,45.6
2023-01-29T02:55:50.973Z,45.7
2023-01-29T02:57:04.678Z,45.6
2023-01-29T02:58:17.545Z,45.6
2023-01-29T02:59:31.060Z,45.6
2023-01-29T03:00:33.948Z,45.6
2023-01-29T03:01:47.550Z,45.6
2023-01-29T03:03:00.386Z,45.6
2023-01-29T03:04:04.048Z,45.6
2023-01-29T03:05:16.909Z,45.6
2023-01-29T03:06:30.533Z,45.6
2023-01-29T03:07:33.565Z,45.6
2023-01-29T03:08:47.536Z,45.6
2023-01-29T03:10:00.339Z,45.6
2023-01-29T03:11:14.144Z,45.6
2023-01-29T03:12:19.501Z,45.6
2023-01-29T03:13:23.579Z,45.6
2023-01-29T03:14:36.438Z,45.6
2023-01-29T03:15:50.098Z,45.6
2023-01-29T03:16:53.498Z,45.6
2023-01-29T03:18:07.052Z,45.6
2023-01-29T03:19:19.954Z,45.6
2023-01-29T03:20:25.544Z,45.6
2023-01-29T03:21:39.448Z,45.5
2023-01-29T03:22:53.312Z,45.5
2023-01-29T03:23:57.061Z,45.5
2023-01-29T03:25:11.579Z,45.5
2023-01-29T03:26:14.683Z,45.5
2023-01-29T03:27:38.076Z,45.5
2023-01-29T03:28:40.988Z,45.5
2023-01-29T03:29:44.556Z,45.5
2023-01-29T03:30:57.487Z,45.5
2023-01-29T03:32:11.108Z,45.5
2023-01-29T03:33:14.046Z,45.5
2023-01-29T03:34:27.556Z,45.5
2023-01-29T03:35:40.496Z,45.5
2023-01-29T03:36:54.059Z,45.4
2023-01-29T03:37:56.996Z,45.5
2023-01-29T03:40:38.441Z,45.5
2023-01-29T03:41:31.398Z,45.5
2023-01-29T03:42:45.086Z,45.5
2023-01-29T03:43:48.081Z,45.5
2023-01-29T03:45:01.566Z,45.4
2023-01-29T03:46:14.473Z,45.5
2023-01-29T03:47:19.566Z,45.5
2023-01-29T03:48:32.438Z,45.4
2023-01-29T03:49:46.568Z,45.4
2023-01-29T03:50:49.597Z,45.5
2023-01-29T03:52:03.069Z,45.4
2023-01-29T03:53:06.013Z,45.5
2023-01-29T03:54:19.554Z,45.5
2023-01-29T03:55:32.439Z,45.5
2023-01-29T03:56:46.060Z,45.4
2023-01-29T03:57:48.936Z,45.5
2023-01-29T03:59:02.589Z,45.5
2023-01-29T04:00:15.954Z,45.4
2023-01-29T04:01:20.168Z,45.5
2023-01-29T04:02:33.137Z,45.5
2023-01-29T04:03:47.110Z,45.4
2023-01-29T04:04:50.082Z,45.4
2023-01-29T04:06:03.576Z,45.4
2023-01-29T04:07:16.468Z,45.5
2023-01-29T04:08:20.134Z,45.5
2023-01-29T04:09:33.046Z,45.4
2023-01-29T04:10:46.592Z,45.5
2023-01-29T04:11:49.500Z,45.5
2023-01-29T04:13:03.090Z,45.4
2023-01-29T04:14:16.041Z,45.4
2023-01-29T04:15:19.568Z,45.4
2023-01-29T04:16:32.488Z,45.5
2023-01-29T04:17:46.556Z,45.4
2023-01-29T04:20:17.228Z,45.5
2023-01-29T04:21:10.433Z,45.5
2023-01-29T04:22:23.968Z,45.5
2023-01-29T04:23:36.861Z,45.4
2023-01-29T04:24:40.457Z,45.4
2023-01-29T04:25:53.355Z,45.4
2023-01-29T04:27:06.958Z,45.4
2023-01-29T04:28:09.946Z,45.4
2023-01-29T04:29:23.440Z,45.4
2023-01-29T04:30:36.381Z,45.4
2023-01-29T04:31:50.487Z,45.4
2023-01-29T04:32:53.577Z,45.4
2023-01-29T04:34:07.463Z,45.4
2023-01-29T04:35:10.344Z,45.4
2023-01-29T04:36:24.007Z,45.4
2023-01-29T04:37:36.894Z,45.4
2023-01-29T04:38:50.556Z,45.4
2023-01-29T04:39:53.446Z,45.4
2023-01-29T04:41:06.951Z,45.3
2023-01-29T04:42:19.868Z,45.3
2023-01-29T04:43:23.540Z,45.3
2023-01-29T04:44:36.430Z,45.3
2023-01-29T04:45:49.946Z,45.2
2023-01-29T04:46:52.860Z,45.2
2023-01-29T04:48:06.487Z,45.2
2023-01-29T04:49:19.362Z,45.1
2023-01-29T04:50:22.930Z,45.1
2023-01-29T04:51:35.898Z,45.1
2023-01-29T04:52:49.492Z,45.1
2023-01-29T04:54:02.356Z,45.1
2023-01-29T04:55:06.501Z,45.1
2023-01-29T04:56:19.443Z,45.0
2023-01-29T04:57:33.498Z,45.0
2023-01-29T04:58:36.415Z,45.0
2023-01-29T04:59:59.995Z,45.0
2023-01-29T05:01:03.089Z,45.0
2023-01-29T05:02:09.489Z,44.9
2023-01-29T05:03:22.390Z,45.0
2023-01-29T05:04:26.450Z,45.0
2023-01-29T05:05:39.333Z,44.9
2023-01-29T05:06:53.059Z,45.0
2023-01-29T05:07:55.996Z,45.0
2023-01-29T05:09:09.490Z,44.9
2023-01-29T05:10:22.369Z,44.9
2023-01-29T05:11:25.958Z,44.9
2023-01-29T05:12:38.851Z,44.9
2023-01-29T05:13:52.485Z,44.9
2023-01-29T05:15:05.401Z,44.9
2023-01-29T05:16:09.098Z,44.9
2023-01-29T05:17:22.019Z,44.9
2023-01-29T05:18:35.493Z,44.9
2023-01-29T05:19:38.386Z,44.8
2023-01-29T05:20:52.537Z,44.9
2023-01-29T05:22:05.424Z,44.8
2023-01-29T05:23:09.476Z,44.8
2023-01-29T05:24:22.389Z,44.8
2023-01-29T05:25:35.975Z,44.8
2023-01-29T05:26:38.861Z,44.8
2023-01-29T05:27:52.502Z,44.8
2023-01-29T05:29:05.381Z,44.8
2023-01-29T05:30:08.984Z,44.8
2023-01-29T05:31:22.012Z,44.8
2023-01-29T05:32:36.010Z,44.8
2023-01-29T05:33:38.931Z,44.8
2023-01-29T05:34:52.483Z,44.8
2023-01-29T05:36:06.933Z,44.8
2023-01-29T05:37:10.976Z,44.8
2023-01-29T05:38:23.859Z,44.8
2023-01-29T05:39:37.467Z,44.8
2023-01-29T05:40:40.403Z,44.8
2023-01-29T05:41:53.977Z,44.9
2023-01-29T05:43:06.855Z,44.8
2023-01-29T05:44:10.458Z,44.8
2023-01-29T05:45:23.340Z,44.9
2023-01-29T05:46:37.072Z,44.9
2023-01-29T05:47:40.031Z,44.9
2023-01-29T05:48:53.991Z,44.9
2023-01-29T05:50:06.894Z,44.9
2023-01-29T05:51:20.494Z,44.9
2023-01-29T05:52:23.407Z,44.9
2023-01-29T05:53:37.486Z,44.9
2023-01-29T05:54:50.375Z,44.9
2023-01-29T05:55:54.464Z,44.9
2023-01-29T05:57:07.356Z,44.9
2023-01-29T05:58:20.965Z,44.9
2023-01-29T05:59:23.860Z,44.9
2023-01-29T06:00:37.658Z,44.9
2023-01-29T06:01:50.556Z,44.9
2023-01-29T06:02:55.065Z,44.9
2023-01-29T06:04:08.103Z,44.9
2023-01-29T06:05:22.001Z,44.9
2023-01-29T06:06:24.900Z,44.9
2023-01-29T06:07:38.490Z,44.9
2023-01-29T06:08:51.410Z,44.8
2023-01-29T06:09:55.496Z,44.9
2023-01-29T06:11:08.452Z,44.9
2023-01-29T06:12:22.009Z,44.9
2023-01-29T06:13:24.913Z,44.9
2023-01-29T06:14:38.501Z,44.8
2023-01-29T06:15:51.540Z,44.8
2023-01-29T06:16:55.477Z,44.8
2023-01-29T06:18:08.137Z,44.8
2023-01-29T06:19:21.495Z,44.8
2023-01-29T06:20:24.207Z,44.8
2023-01-29T06:21:38.204Z,44.8
2023-01-29T06:22:50.859Z,44.8
2023-01-29T06:24:04.723Z,44.8
2023-01-29T06:25:07.440Z,44.8
2023-01-29T06:26:21.008Z,44.8
2023-01-29T06:27:23.727Z,44.8
2023-01-29T06:28:37.008Z,44.7
2023-01-29T06:29:49.675Z,44.7
2023-01-29T06:31:16.462Z,44.9
2023-01-29T06:32:07.112Z,44.8
2023-01-29T06:33:20.069Z,44.8
2023-01-29T06:34:34.004Z,44.8
2023-01-29T06:35:36.915Z,44.7
2023-01-29T06:36:50.489Z,44.7
2023-01-29T06:38:03.351Z,44.7
2023-01-29T06:39:06.993Z,44.7
2023-01-29T06:40:19.868Z,44.7
2023-01-29T06:41:33.509Z,44.7
2023-01-29T06:42:36.428Z,44.7
2023-01-29T06:43:50.040Z,44.8
2023-01-29T06:45:02.906Z,44.8
2023-01-29T06:46:06.507Z,44.8
2023-01-29T06:47:19.354Z,44.8
2023-01-29T06:48:32.992Z,44.8
2023-01-29T06:49:35.914Z,44.8
2023-01-29T06:50:49.486Z,44.9
2023-01-29T06:52:02.373Z,45.0
2023-01-29T06:53:16.010Z,44.9
2023-01-29T06:54:18.926Z,44.9
2023-01-29T06:55:32.491Z,45.0
2023-01-29T06:56:45.392Z,45.0
2023-01-29T06:57:48.999Z,45.1
2023-01-29T06:59:01.879Z,45.1
2023-01-29T07:00:15.928Z,45.1
2023-01-29T07:01:34.602Z,45.1
2023-01-29T07:02:28.545Z,45.2
2023-01-29T07:03:41.568Z,45.2
2023-01-29T07:04:54.996Z,45.2
2023-01-29T07:05:57.879Z,45.2
2023-01-29T07:07:11.504Z,45.2
2023-01-29T07:08:24.415Z,45.3
2023-01-29T07:09:38.001Z,45.3
2023-01-29T07:10:40.837Z,45.3
2023-01-29T07:11:54.513Z,45.4
2023-01-29T07:13:07.399Z,45.5
2023-01-29T07:14:11.225Z,45.5
2023-01-29T07:15:24.018Z,45.5
2023-01-29T07:16:37.517Z,45.3
2023-01-29T07:17:40.306Z,45.1
2023-01-29T07:18:54.004Z,44.9
2023-01-29T07:20:07.174Z,44.7
2023-01-29T07:21:10.503Z,44.5
2023-01-29T07:22:23.161Z,44.2
2023-01-29T07:23:36.532Z,44.0
2023-01-29T07:24:39.486Z,43.7
2023-01-29T07:25:53.030Z,43.6
2023-01-29T07:27:05.661Z,43.4
2023-01-29T07:28:09.011Z,43.2
2023-01-29T07:29:21.645Z,43.0
2023-01-29T07:30:35.028Z,42.9
2023-01-29T07:31:47.695Z,42.8
2023-01-29T07:32:51.007Z,42.6
2023-01-29T07:34:03.581Z,42.5
2023-01-29T07:35:17.029Z,42.4
2023-01-29T07:36:19.706Z,42.3
2023-01-29T07:37:33.088Z,42.2
2023-01-29T07:38:45.625Z,42.1
2023-01-29T07:39:58.998Z,42.1
2023-01-29T07:41:03.163Z,42.1
2023-01-29T07:42:17.041Z,42.1
2023-01-29T07:43:19.641Z,42.1
2023-01-29T07:44:33.041Z,42.2
2023-01-29T07:45:45.680Z,42.1
2023-01-29T07:46:59.003Z,42.1
2023-01-29T07:48:01.600Z,42.1
2023-01-29T07:49:15.055Z,42.0
2023-01-29T07:50:27.588Z,42.0
2023-01-29T07:51:51.050Z,42.0
2023-01-29T07:52:44.009Z,41.9
2023-01-29T07:53:58.015Z,41.9
2023-01-29T07:55:00.737Z,41.9
2023-01-29T07:56:14.021Z,41.9
2023-01-29T07:57:26.603Z,41.9
2023-01-29T07:58:39.999Z,41.9
2023-01-29T07:59:42.759Z,41.8
2023-01-29T08:00:56.018Z,41.8
2023-01-29T08:02:08.752Z,41.7
2023-01-29T08:03:12.020Z,41.7
2023-01-29T08:04:24.532Z,41.8
2023-01-29T08:05:38.014Z,41.7
2023-01-29T08:06:40.666Z,41.7
2023-01-29T08:08:05.709Z,41.8
2023-01-29T08:09:09.466Z,41.7
2023-01-29T08:10:13.028Z,41.7
2023-01-29T08:11:25.516Z,41.6
2023-01-29T08:12:39.039Z,41.6
2023-01-29T08:13:41.639Z,41.6
2023-01-29T08:14:55.050Z,41.6
2023-01-29T08:16:07.774Z,41.5
2023-01-29T08:17:21.027Z,41.5
2023-01-29T08:18:23.573Z,41.5
2023-01-29T08:19:36.994Z,41.5
2023-01-29T08:20:49.459Z,41.5
2023-01-29T08:21:53.006Z,41.5
2023-01-29T08:23:05.501Z,41.4
2023-01-29T08:24:19.082Z,41.4
2023-01-29T08:25:22.448Z,41.4
2023-01-29T08:26:36.001Z,41.4
2023-01-29T08:27:48.586Z,41.4
2023-01-29T08:28:52.092Z,41.3
2023-01-29T08:30:04.597Z,41.4
2023-01-29T08:31:18.051Z,41.4
2023-01-29T08:32:20.617Z,41.3
2023-01-29T08:33:38.936Z,41.3
2023-01-29T08:34:41.833Z,41.4
2023-01-29T08:35:55.021Z,41.3
2023-01-29T08:37:07.507Z,41.3
2023-01-29T08:38:20.531Z,41.4
2023-01-29T08:39:23.276Z,41.4
2023-01-29T08:40:36.521Z,41.4
2023-01-29T08:41:49.002Z,41.4
2023-01-29T08:42:52.527Z,41.4
2023-01-29T08:44:05.197Z,41.4
2023-01-29T08:45:18.596Z,41.3
2023-01-29T08:46:31.058Z,41.3
2023-01-29T08:47:34.523Z,41.3
2023-01-29T08:48:47.144Z,41.3
2023-01-29T08:50:00.520Z,41.3
2023-01-29T08:51:03.078Z,41.2
2023-01-29T08:52:16.529Z,41.2
2023-01-29T08:53:29.002Z,41.2
2023-01-29T08:54:42.025Z,41.2
2023-01-29T08:55:44.575Z,41.1
2023-01-29T08:56:58.150Z,41.1
2023-01-29T08:58:10.833Z,41.1
2023-01-29T08:59:14.025Z,41.1
2023-01-29T09:00:26.548Z,41.1
2023-01-29T09:01:39.515Z,41.1
2023-01-29T09:02:51.745Z,41.1
2023-01-29T09:03:55.076Z,41.1
2023-01-29T09:05:07.578Z,41.1
2023-01-29T09:06:21.012Z,41.1
2023-01-29T09:07:23.567Z,41.1
2023-01-29T09:08:37.039Z,41.1
2023-01-29T09:09:49.506Z,41.1
2023-01-29T09:11:03.030Z,41.1
2023-01-29T09:12:05.557Z,41.1
2023-01-29T09:13:18.558Z,41.0
2023-01-29T09:14:31.022Z,41.0
2023-01-29T09:15:34.039Z,40.9
2023-01-29T09:16:46.299Z,40.9
2023-01-29T09:17:59.563Z,41.0
2023-01-29T09:19:12.050Z,41.0
2023-01-29T09:20:16.074Z,40.9
2023-01-29T09:21:28.541Z,40.9
2023-01-29T09:22:42.023Z,40.9
2023-01-29T09:23:44.626Z,40.8
2023-01-29T09:25:08.035Z,40.7
2023-01-29T09:26:10.628Z,40.7
2023-01-29T09:27:14.059Z,40.6
2023-01-29T09:28:26.574Z,40.5
2023-01-29T09:29:40.772Z,40.4
2023-01-29T09:30:53.421Z,40.5
2023-01-29T09:31:57.123Z,40.5
2023-01-29T09:33:09.728Z,40.6
2023-01-29T09:34:23.645Z,40.7
2023-01-29T09:35:26.256Z,40.8
2023-01-29T09:36:39.538Z,40.9
2023-01-29T09:37:52.339Z,41.1
2023-01-29T09:38:56.044Z,41.2
2023-01-29T09:40:08.632Z,41.2
2023-01-29T09:41:22.054Z,41.4
2023-01-29T09:42:24.588Z,41.4
2023-01-29T09:43:38.061Z,41.5
2023-01-29T09:44:50.529Z,41.6
2023-01-29T09:45:54.571Z,41.8
2023-01-29T09:47:07.198Z,41.9
2023-01-29T09:48:20.556Z,42.0
2023-01-29T09:49:23.096Z,42.2
2023-01-29T09:50:36.516Z,42.3
2023-01-29T09:51:48.985Z,42.5
2023-01-29T09:53:02.061Z,42.6
2023-01-29T09:54:04.767Z,42.7
2023-01-29T09:55:18.540Z,42.9
2023-01-29T09:56:31.330Z,43.0
2023-01-29T09:57:34.557Z,43.1
2023-01-29T09:58:47.103Z,43.3
2023-01-29T10:00:00.537Z,43.3
2023-01-29T10:01:13.154Z,43.4
2023-01-29T10:02:17.661Z,43.5
2023-01-29T10:03:30.220Z,43.6
2023-01-29T10:04:43.629Z,43.7
2023-01-29T10:05:46.208Z,43.8
2023-01-29T10:06:59.561Z,44.0
2023-01-29T10:08:12.033Z,44.1
2023-01-29T10:09:15.514Z,44.2
2023-01-29T10:10:28.010Z,44.5
2023-01-29T10:11:41.533Z,44.5
2023-01-29T10:12:44.078Z,44.7
2023-01-29T10:13:57.549Z,44.8
2023-01-29T10:15:10.022Z,44.7
2023-01-29T10:16:33.433Z,44.5
2023-01-29T10:17:26.958Z,44.4
2023-01-29T10:18:41.045Z,44.2
2023-01-29T10:19:53.498Z,44.0
2023-01-29T10:20:57.038Z,43.9
2023-01-29T10:22:09.527Z,43.7
2023-01-29T10:23:23.060Z,43.5
2023-01-29T10:24:25.737Z,43.4
2023-01-29T10:25:39.050Z,36.4
2023-01-29T10:26:51.631Z,33.8
2023-01-29T10:27:55.127Z,34.5
2023-01-29T10:29:07.857Z,35.3
2023-01-29T10:30:22.538Z,37.4
2023-01-29T10:31:35.286Z,38.2
2023-01-29T10:32:39.075Z,38.7
2023-01-29T10:34:02.166Z,39.0
2023-01-29T10:34:56.562Z,39.2
2023-01-29T10:36:09.425Z,39.3
2023-01-29T10:37:23.059Z,39.5
2023-01-29T10:38:25.681Z,39.6
2023-01-29T10:39:39.055Z,39.6
2023-01-29T10:40:51.620Z,39.6
2023-01-29T10:42:05.026Z,39.7
2023-01-29T10:43:07.641Z,39.7
2023-01-29T10:44:21.558Z,39.8
2023-01-29T10:45:34.133Z,39.8
2023-01-29T10:46:37.582Z,39.8
2023-01-29T10:47:50.241Z,39.8
2023-01-29T10:49:03.555Z,39.8
2023-01-29T10:50:16.083Z,39.7
2023-01-29T10:51:19.574Z,39.7
2023-01-29T10:52:32.074Z,39.7
2023-01-29T10:53:45.596Z,39.7
2023-01-29T10:54:48.170Z,39.7
2023-01-29T10:56:05.824Z,39.6
2023-01-29T10:57:13.604Z,39.5
2023-01-29T10:58:27.057Z,39.5
2023-01-29T10:59:29.668Z,39.5
2023-01-29T11:00:43.068Z,39.4
2023-01-29T11:01:55.612Z,39.4
2023-01-29T11:02:59.193Z,39.4
2023-01-29T11:04:11.812Z,39.4
2023-01-29T11:05:25.079Z,39.4
2023-01-29T11:06:27.654Z,39.4
2023-01-29T11:07:41.579Z,39.3
2023-01-29T11:08:54.064Z,39.4
2023-01-29T11:10:07.541Z,39.4
2023-01-29T11:11:10.087Z,39.3
2023-01-29T11:12:24.031Z,39.3
2023-01-29T11:13:26.730Z,39.3
2023-01-29T11:14:40.084Z,39.2
2023-01-29T11:15:52.563Z,39.2
2023-01-29T11:17:06.116Z,39.2
2023-01-29T11:18:08.744Z,39.2
2023-01-29T11:19:22.311Z,39.1
2023-01-29T11:20:44.672Z,39.1
2023-01-29T11:21:38.090Z,39.1
2023-01-29T11:22:50.566Z,39.0
2023-01-29T11:24:04.084Z,39.0
2023-01-29T11:25:06.630Z,39.0
2023-01-29T11:26:20.065Z,38.9
2023-01-29T11:27:32.530Z,39.0
2023-01-29T11:28:46.079Z,39.1
2023-01-29T11:29:48.638Z,39.1
2023-01-29T11:31:02.179Z,39.1
2023-01-29T11:32:14.795Z,39.1
2023-01-29T11:33:18.105Z,39.1
2023-01-29T11:34:30.601Z,39.2
2023-01-29T11:35:44.093Z,39.2
2023-01-29T11:36:56.591Z,39.3
2023-01-29T11:38:00.574Z,39.2
2023-01-29T11:39:13.040Z,39.2
2023-01-29T11:40:26.065Z,39.3
2023-01-29T11:41:28.652Z,39.4
2023-01-29T11:42:42.081Z,39.4
2023-01-29T11:43:54.570Z,39.4
2023-01-29T11:44:58.072Z,39.4
2023-01-29T11:46:10.581Z,39.5
2023-01-29T11:47:24.107Z,39.5
2023-01-29T11:48:26.661Z,39.5
2023-01-29T11:49:40.050Z,39.5
2023-01-29T11:50:52.695Z,39.5
2023-01-29T11:52:06.063Z,39.5
2023-01-29T11:53:08.615Z,39.6
2023-01-29T11:54:22.115Z,39.5
2023-01-29T11:55:49.527Z,39.5
2023-01-29T11:56:44.088Z,39.6
2023-01-29T11:57:46.540Z,39.6
2023-01-29T11:58:59.568Z,39.6
2023-01-29T12:00:11.831Z,39.6
2023-01-29T12:01:25.103Z,39.6
2023-01-29T12:02:27.460Z,39.6
2023-01-29T12:03:40.666Z,39.6
2023-01-29T12:04:53.076Z,39.6
2023-01-29T12:06:06.169Z,39.6
2023-01-29T12:07:08.726Z,39.7
2023-01-29T12:08:22.123Z,39.6
2023-01-29T12:09:54.289Z,39.6
2023-01-29T12:10:37.603Z,39.7
2023-01-29T12:11:50.069Z,39.7
2023-01-29T12:13:03.612Z,39.7
2023-01-29T12:14:06.224Z,39.7
2023-01-29T12:15:19.574Z,39.6
2023-01-29T12:16:32.106Z,39.7
2023-01-29T12:17:46.121Z,39.8
2023-01-29T12:18:48.662Z,39.8
2023-01-29T12:20:02.099Z,39.8
2023-01-29T12:21:14.588Z,39.8
2023-01-29T12:22:18.087Z,39.8
2023-01-29T12:23:30.574Z,40.0
2023-01-29T12:24:44.062Z,40.1
2023-01-29T12:25:56.564Z,40.1
2023-01-29T12:27:00.086Z,40.1
2023-01-29T12:28:12.583Z,40.1
2023-01-29T12:29:26.090Z,40.1
2023-01-29T12:30:28.680Z,40.1
2023-01-29T12:31:42.159Z,40.1
2023-01-29T12:32:54.809Z,40.2
2023-01-29T12:34:08.086Z,40.2
2023-01-29T12:35:10.668Z,40.2
2023-01-29T12:36:24.156Z,40.2
2023-01-29T12:37:36.664Z,40.1
2023-01-29T12:38:40.087Z,40.1
2023-01-29T12:39:52.561Z,40.1
2023-01-29T12:41:06.084Z,40.1
2023-01-29T12:42:08.688Z,40.1
2023-01-29T12:43:22.093Z,40.1
2023-01-29T12:44:34.602Z,40.2
2023-01-29T12:45:48.121Z,40.2
2023-01-29T12:46:50.818Z,40.1
2023-01-29T12:48:04.105Z,40.1
2023-01-29T12:49:16.607Z,40.1
2023-01-29T12:50:20.138Z,40.1
2023-01-29T12:51:32.733Z,40.1
2023-01-29T12:52:46.094Z,40.1
2023-01-29T12:53:48.644Z,40.0
2023-01-29T12:55:02.091Z,40.1
2023-01-29T12:56:14.587Z,40.0
2023-01-29T12:57:28.107Z,40.0
2023-01-29T12:58:30.678Z,39.9
2023-01-29T12:59:44.087Z,39.9
2023-01-29T13:00:56.634Z,39.9
2023-01-29T13:02:00.106Z,40.0
2023-01-29T13:03:12.621Z,40.0
2023-01-29T13:04:26.584Z,40.0
2023-01-29T13:05:29.172Z,40.0
2023-01-29T13:06:42.622Z,39.9
2023-01-29T13:07:55.132Z,39.9
2023-01-29T13:09:08.625Z,39.9
2023-01-29T13:10:11.207Z,39.9
2023-01-29T13:11:24.610Z,39.9
2023-01-29T13:12:37.122Z,39.9
2023-01-29T13:13:52.209Z,39.9
2023-01-29T13:14:56.220Z,39.9
2023-01-29T13:16:09.634Z,39.8
2023-01-29T13:17:12.202Z,39.9
2023-01-29T13:18:25.600Z,39.9
2023-01-29T13:19:38.083Z,39.8
2023-01-29T13:20:42.108Z,39.8
2023-01-29T13:21:54.608Z,39.8
2023-01-29T13:23:08.133Z,39.8
2023-01-29T13:24:10.700Z,39.8
2023-01-29T13:25:24.091Z,39.8
2023-01-29T13:26:36.618Z,39.8
2023-01-29T13:27:50.102Z,39.8
2023-01-29T13:28:52.718Z,39.8
2023-01-29T13:30:06.191Z,39.8
2023-01-29T13:31:18.683Z,39.7
2023-01-29T13:32:42.146Z,39.8
2023-01-29T13:33:34.842Z,39.8
2023-01-29T13:34:48.148Z,39.7
2023-01-29T13:36:00.765Z,39.7
2023-01-29T13:37:04.116Z,39.7
2023-01-29T13:38:16.691Z,39.7
2023-01-29T13:39:31.104Z,39.7
2023-01-29T13:40:33.665Z,39.7
2023-01-29T13:41:47.101Z,39.7
2023-01-29T13:43:00.381Z,39.7
2023-01-29T13:44:04.164Z,39.6
2023-01-29T13:45:16.990Z,39.7
2023-01-29T13:46:30.600Z,39.7
2023-01-29T13:47:43.086Z,39.7
2023-01-29T13:48:46.638Z,39.7
2023-01-29T13:49:59.191Z,39.7
2023-01-29T13:51:12.642Z,39.7
2023-01-29T13:52:15.260Z,39.7
2023-01-29T13:53:28.640Z,39.7
2023-01-29T13:54:41.150Z,39.7
2023-01-29T13:55:44.658Z,39.6
2023-01-29T13:56:57.173Z,39.7
2023-01-29T13:58:10.639Z,39.7
2023-01-29T13:59:13.212Z,39.8
2023-01-29T14:00:26.641Z,39.9
2023-01-29T14:01:39.120Z,39.9
2023-01-29T14:02:52.619Z,39.9
2023-01-29T14:04:04.558Z,39.9
2023-01-29T14:05:09.066Z,39.9
2023-01-29T14:06:21.638Z,40.0
2023-01-29T14:07:25.126Z,40.0
2023-01-29T14:08:37.618Z,40.0
2023-01-29T14:09:51.131Z,40.0
2023-01-29T14:11:03.641Z,40.0
2023-01-29T14:12:07.108Z,40.0
2023-01-29T14:13:19.585Z,40.1
2023-01-29T14:14:32.605Z,40.1
2023-01-29T14:15:35.198Z,40.0
2023-01-29T14:16:48.691Z,40.0
2023-01-29T14:18:01.241Z,40.0
2023-01-29T14:19:14.656Z,40.1
2023-01-29T14:20:17.211Z,40.1
2023-01-29T14:21:30.621Z,40.0
2023-01-29T14:22:43.106Z,40.1
2023-01-29T14:23:46.609Z,40.1
2023-01-29T14:24:59.219Z,40.1
2023-01-29T14:26:12.695Z,40.1
2023-01-29T14:27:25.310Z,40.1
2023-01-29T14:28:29.126Z,40.1
2023-01-29T14:29:41.754Z,40.1
2023-01-29T14:30:55.268Z,40.1
2023-01-29T14:31:57.941Z,40.1
2023-01-29T14:33:11.140Z,40.1
2023-01-29T14:34:23.496Z,40.1
2023-01-29T14:35:26.620Z,40.1
2023-01-29T14:36:38.994Z,40.1
2023-01-29T14:37:53.139Z,40.1
2023-01-29T14:38:55.699Z,40.0
2023-01-29T14:40:09.136Z,40.1
2023-01-29T14:41:21.623Z,40.0
2023-01-29T14:42:35.142Z,40.0
2023-01-29T14:43:37.814Z,40.0
2023-01-29T14:44:51.132Z,39.9
2023-01-29T14:46:03.543Z,39.9
2023-01-29T14:47:07.133Z,40.0
2023-01-29T14:48:19.620Z,39.9
2023-01-29T14:49:33.116Z,39.9
2023-01-29T14:50:45.621Z,39.9
2023-01-29T14:51:49.148Z,39.9
2023-01-29T14:53:01.630Z,39.9
2023-01-29T14:54:15.135Z,39.9
2023-01-29T14:55:18.008Z,39.9
2023-01-29T14:56:31.647Z,39.8
2023-01-29T14:57:44.211Z,39.8
2023-01-29T14:58:47.619Z,39.8
2023-01-29T15:00:00.150Z,39.8
2023-01-29T15:01:13.714Z,39.8
2023-01-29T15:02:16.448Z,39.8
2023-01-29T15:03:29.646Z,39.7
2023-01-29T15:04:42.156Z,39.8
2023-01-29T15:05:55.623Z,39.8
2023-01-29T15:06:58.192Z,39.7
2023-01-29T15:08:11.606Z,39.7
2023-01-29T15:09:26.789Z,39.8
2023-01-29T15:10:32.150Z,39.8
2023-01-29T15:11:44.662Z,39.8
2023-01-29T15:12:48.138Z,39.7
2023-01-29T15:14:00.647Z,39.7
2023-01-29T15:15:14.293Z,39.8
2023-01-29T15:16:17.167Z,39.8
2023-01-29T15:17:30.632Z,39.8
2023-01-29T15:18:43.144Z,39.7
2023-01-29T15:19:56.635Z,39.8
2023-01-29T15:20:59.200Z,39.7
2023-01-29T15:22:12.631Z,39.8
2023-01-29T15:23:25.130Z,39.8
2023-01-29T15:24:28.649Z,39.8
2023-01-29T15:25:41.163Z,39.7
2023-01-29T15:26:54.625Z,39.7
2023-01-29T15:28:07.125Z,39.7
2023-01-29T15:29:10.681Z,39.7
2023-01-29T15:30:23.183Z,39.7
2023-01-29T15:31:36.733Z,39.8
2023-01-29T15:32:39.445Z,39.7
2023-01-29T15:33:52.663Z,39.7
2023-01-29T15:35:05.196Z,39.7
2023-01-29T15:36:18.628Z,39.7
2023-01-29T15:37:21.233Z,39.7